Time;durP1;ratioP1;P1;durP2;ratioP2;P2;SDS_P1;SDS_P2;PMS_P1;PMS_P2;Temp;Humidity;BMP_temperature;BMP_pressure;BME280_temperature;BME280_humidity;BME280_pressure;Samples;Min_cycle;Max_cycle;Signal;HPM_P1;HPM_P2
2023/04/07 00:01:51;;;;;;;18.80;12.38;;;4.30;99.90;;;;;;5048187;28;20492;-71
2023/04/07 00:04:19;;;;;;;20.13;13.00;;;4.30;99.90;;;;;;5031556;28;20404;-70
2023/04/07 00:06:47;;;;;;;18.75;12.90;;;4.30;99.90;;;;;;5049467;28;20041;-72
2023/04/07 00:09:14;;;;;;;19.65;13.18;;;4.20;99.90;;;;;;5055983;28;20384;-72
2023/04/07 00:11:41;;;;;;;17.98;12.82;;;4.20;99.90;;;;;;5050177;28;20037;-69
2023/04/07 00:14:09;;;;;;;22.70;13.73;;;4.20;99.90;;;;;;5050028;28;20044;-70
2023/04/07 00:16:36;;;;;;;18.35;12.57;;;4.20;99.90;;;;;;5050362;28;20471;-70
2023/04/07 00:19:03;;;;;;;21.83;12.70;;;4.20;99.90;;;;;;5049541;28;20041;-65
2023/04/07 00:21:31;;;;;;;20.23;12.90;;;4.20;99.90;;;;;;5048565;28;20045;-65
2023/04/07 00:23:58;;;;;;;17.45;12.77;;;4.20;99.90;;;;;;5046865;28;20411;-65
2023/04/07 00:26:30;;;;;;;20.17;12.32;;;4.20;99.90;;;;;;5051687;28;20044;-66
2023/04/07 00:28:58;;;;;;;20.05;12.85;;;4.10;99.90;;;;;;5048042;28;20533;-66
2023/04/07 00:31:25;;;;;;;16.40;12.20;;;4.10;99.90;;;;;;5030595;28;20041;-66
2023/04/07 00:33:54;;;;;;;18.15;12.38;;;4.10;99.90;;;;;;5049671;28;20467;-65
2023/04/07 00:36:22;;;;;;;18.15;12.10;;;4.10;99.90;;;;;;5046242;28;20059;-66
2023/04/07 00:38:49;;;;;;;18.77;11.93;;;4.10;99.90;;;;;;5049410;28;20296;-66
2023/04/07 00:41:17;;;;;;;16.35;11.63;;;4.10;99.90;;;;;;5031256;28;20084;-65
2023/04/07 00:43:44;;;;;;;18.65;11.88;;;4.00;99.90;;;;;;5056459;28;20514;-67
2023/04/07 00:46:12;;;;;;;21.58;12.43;;;4.00;99.90;;;;;;5039091;28;20436;-67
2023/04/07 00:48:39;;;;;;;16.15;12.00;;;4.00;99.90;;;;;;5050455;28;20451;-66
2023/04/07 00:51:06;;;;;;;15.90;11.45;;;3.90;99.90;;;;;;5046756;28;20057;-67
2023/04/07 00:53:34;;;;;;;14.65;11.48;;;4.00;99.90;;;;;;5049314;28;20124;-68
2023/04/07 00:56:01;;;;;;;16.98;12.82;;;3.90;99.90;;;;;;5047790;28;20542;-66
2023/04/07 00:58:29;;;;;;;18.10;13.18;;;3.90;99.90;;;;;;5049848;28;20041;-68
2023/04/07 01:01:15;;;;;;;19.70;13.48;;;3.90;99.90;;;;;;5029029;28;20439;-67
2023/04/07 01:04:00;;;;;;;18.33;12.93;;;3.70;99.90;;;;;;5047079;28;20037;-68
2023/04/07 01:06:32;;;;;;;19.52;13.50;;;3.70;99.90;;;;;;5041992;28;20040;-67
2023/04/07 01:09:18;;;;;;;19.10;13.23;;;3.80;99.90;;;;;;5047007;28;20388;-68
2023/04/07 01:11:51;;;;;;;18.30;13.10;;;3.90;99.90;;;;;;5031318;28;20468;-68
2023/04/07 01:14:20;;;;;;;16.55;12.95;;;4.00;99.90;;;;;;5068976;28;20072;-66
2023/04/07 01:17:00;;;;;;;18.55;12.75;;;4.10;99.90;;;;;;5047949;28;20064;-67
2023/04/07 01:19:31;;;;;;;;;;;4.20;99.90;;;;;;5048262;28;20352;-68
2023/04/07 01:22:00;;;;;;;21.60;13.20;;;4.30;99.90;;;;;;5031068;28;20451;-66
2023/04/07 01:25:12;;;;;;;18.88;13.77;;;4.40;99.90;;;;;;5025449;28;20537;-67
2023/04/07 01:27:55;;;;;;;15.55;12.10;;;4.50;99.90;;;;;;5043855;28;20052;-66
2023/04/07 01:30:24;;;;;;;18.25;12.68;;;4.60;99.90;;;;;;5048145;28;20500;-66
2023/04/07 01:32:53;;;;;;;21.13;12.82;;;4.70;99.90;;;;;;5062696;28;20044;-67
2023/04/07 01:35:22;;;;;;;17.85;12.35;;;4.80;99.90;;;;;;5047310;28;20033;-68
2023/04/07 01:37:51;;;;;;;17.50;12.95;;;4.80;99.90;;;;;;5028037;28;20523;-68
2023/04/07 01:40:21;;;;;;;19.33;12.60;;;4.80;99.90;;;;;;5047073;28;20044;-68
2023/04/07 01:42:50;;;;;;;18.35;12.85;;;4.90;99.90;;;;;;5045855;28;20614;-67
2023/04/07 01:45:18;;;;;;;20.00;13.32;;;4.90;99.90;;;;;;5049761;28;20041;-68
2023/04/07 01:47:46;;;;;;;16.77;12.43;;;4.90;99.90;;;;;;5030959;28;20788;-67
2023/04/07 01:50:14;;;;;;;16.95;13.05;;;4.90;99.90;;;;;;5047342;28;20037;-67
2023/04/07 01:52:42;;;;;;;17.58;12.93;;;4.90;99.90;;;;;;5046583;28;20048;-68
2023/04/07 01:55:09;;;;;;;18.45;13.32;;;4.90;99.90;;;;;;5044798;28;20033;-69
2023/04/07 01:57:44;;;;;;;19.20;12.60;;;4.80;99.90;;;;;;5042072;28;20088;-68
2023/04/07 02:00:15;;;;;;;15.27;12.10;;;4.80;99.90;;;;;;5027878;28;20157;-68
2023/04/07 02:02:50;;;;;;;20.17;12.40;;;4.80;99.90;;;;;;5040713;28;20318;-67
2023/04/07 02:05:21;;;;;;;18.48;11.90;;;4.80;99.90;;;;;;5044308;28;20037;-68
2023/04/07 02:07:58;;;;;;;16.10;12.10;;;4.80;99.90;;;;;;5035312;28;20503;-67
2023/04/07 02:10:28;;;;;;;18.65;11.80;;;4.80;99.90;;;;;;5038395;28;20395;-68
2023/04/07 02:13:00;;;;;;;18.23;12.43;;;4.70;99.90;;;;;;5038165;28;20340;-67
2023/04/07 02:15:30;;;;;;;15.93;11.57;;;4.70;99.90;;;;;;5044339;28;20490;-68
2023/04/07 02:18:00;;;;;;;17.05;12.13;;;4.60;99.90;;;;;;5026427;28;20045;-67
2023/04/07 02:20:29;;;;;;;17.95;11.65;;;4.70;99.90;;;;;;5043601;28;20045;-68
2023/04/07 02:22:57;;;;;;;17.20;11.88;;;4.60;99.90;;;;;;5028269;28;20064;-68
2023/04/07 02:25:25;;;;;;;19.35;13.00;;;4.60;99.90;;;;;;5044168;28;20573;-68
2023/04/07 02:27:54;;;;;;;17.08;11.43;;;4.60;99.90;;;;;;5040999;28;20060;-67
2023/04/07 02:30:22;;;;;;;20.70;12.98;;;4.60;99.90;;;;;;5042810;28;20056;-68
2023/04/07 02:32:50;;;;;;;18.33;12.25;;;4.50;99.90;;;;;;5026428;28;20041;-66
2023/04/07 02:35:19;;;;;;;18.15;12.75;;;4.50;99.90;;;;;;5044363;28;20561;-68
2023/04/07 02:37:47;;;;;;;19.20;13.38;;;4.60;99.90;;;;;;5027896;28;21349;-67
2023/04/07 02:40:15;;;;;;;20.00;13.20;;;4.60;99.90;;;;;;5046465;28;20131;-67
2023/04/07 02:42:43;;;;;;;19.65;12.38;;;4.50;99.90;;;;;;5063773;28;20044;-65
2023/04/07 02:45:11;;;;;;;16.73;12.20;;;4.50;99.90;;;;;;5048459;28;20037;-66
2023/04/07 02:47:38;;;;;;;14.95;11.93;;;4.50;99.90;;;;;;5048197;28;20519;-65
2023/04/07 02:50:06;;;;;;;19.00;12.68;;;4.60;99.90;;;;;;5030825;28;20043;-66
2023/04/07 02:52:35;;;;;;;17.33;12.07;;;4.60;99.90;;;;;;5070612;28;20037;-66
2023/04/07 02:55:08;;;;;;;19.60;12.20;;;4.50;99.90;;;;;;5049813;28;20040;-66
2023/04/07 02:57:36;;;;;;;18.25;12.93;;;4.50;99.90;;;;;;5051715;28;20041;-65
2023/04/07 03:00:09;;;;;;;17.98;12.70;;;4.50;99.90;;;;;;5046222;28;20120;-66
2023/04/07 03:02:54;;;;;;;19.00;12.38;;;4.50;99.90;;;;;;5034227;28;20404;-66
2023/04/07 03:05:22;;;;;;;17.05;12.70;;;4.40;99.90;;;;;;5047851;28;20479;-66
2023/04/07 03:07:49;;;;;;;17.17;12.88;;;4.40;99.90;;;;;;5049697;28;20033;-67
2023/04/07 03:10:17;;;;;;;15.75;11.80;;;4.20;99.90;;;;;;5049374;28;20504;-65
2023/04/07 03:12:44;;;;;;;17.23;12.98;;;4.20;99.90;;;;;;5034789;28;20150;-65
2023/04/07 03:15:11;;;;;;;18.25;12.85;;;4.10;99.90;;;;;;5051419;28;20072;-67
2023/04/07 03:17:43;;;;;;;18.20;12.27;;;4.10;99.90;;;;;;5046372;28;20037;-67
2023/04/07 03:20:10;;;;;;;18.63;12.27;;;4.20;99.90;;;;;;5050508;28;20072;-65
2023/04/07 03:22:39;;;;;;;19.10;12.52;;;4.20;99.90;;;;;;5048672;28;20044;-67
2023/04/07 03:25:13;;;;;;;20.17;13.30;;;4.20;99.90;;;;;;5045432;28;20673;-65
2023/04/07 03:27:40;;;;;;;23.33;13.30;;;4.20;99.90;;;;;;5022135;28;20049;-64
2023/04/07 03:30:10;;;;;;;18.05;12.60;;;4.30;99.90;;;;;;5045474;28;20620;-67
2023/04/07 03:32:38;;;;;;;18.23;13.18;;;4.30;99.90;;;;;;5026979;28;20530;-66
2023/04/07 03:35:05;;;;;;;17.60;12.32;;;4.30;99.90;;;;;;5048302;28;20075;-66
2023/04/07 03:37:33;;;;;;;17.90;13.23;;;4.40;99.90;;;;;;5041724;28;20048;-70
2023/04/07 03:40:01;;;;;;;18.48;12.73;;;4.40;99.90;;;;;;5041528;28;20127;-65
2023/04/07 03:42:33;;;;;;;23.15;13.55;;;4.40;99.90;;;;;;5046156;28;20033;-66
2023/04/07 03:45:03;;;;;;;20.90;13.52;;;4.40;99.90;;;;;;5047047;28;20045;-65
2023/04/07 03:47:32;;;;;;;19.92;12.70;;;4.30;99.90;;;;;;5046982;28;20064;-65
2023/04/07 03:50:02;;;;;;;19.52;13.57;;;4.40;99.90;;;;;;5011972;28;20050;-66
2023/04/07 03:52:34;;;;;;;19.95;13.23;;;4.40;99.90;;;;;;5037256;28;20040;-66
2023/04/07 03:55:10;;;;;;;18.15;12.68;;;4.30;99.90;;;;;;5045977;28;20056;-66
2023/04/07 03:57:39;;;;;;;17.77;12.52;;;4.30;99.90;;;;;;5041780;28;20452;-66
2023/04/07 04:00:07;;;;;;;23.35;13.48;;;4.30;99.90;;;;;;5047481;28;20514;-65
2023/04/07 04:02:44;;;;;;;19.45;13.98;;;4.30;99.90;;;;;;5046524;28;20041;-65
2023/04/07 04:05:16;;;;;;;20.83;12.88;;;4.30;99.90;;;;;;5042403;28;20505;-65
2023/04/07 04:07:44;;;;;;;18.33;12.52;;;4.30;99.90;;;;;;5060845;28;20044;-67
2023/04/07 04:10:12;;;;;;;18.73;12.35;;;4.30;99.90;;;;;;5045068;28;20090;-67
2023/04/07 04:12:43;;;;;;;19.73;13.35;;;4.30;99.90;;;;;;5043850;28;20091;-67
2023/04/07 04:15:12;;;;;;;18.48;12.30;;;4.30;99.90;;;;;;5045188;28;20033;-65
2023/04/07 04:17:40;;;;;;;21.10;13.32;;;4.30;99.90;;;;;;5046002;28;20339;-67
2023/04/07 04:20:09;;;;;;;16.90;12.68;;;4.30;99.90;;;;;;5044097;28;20751;-66
2023/04/07 04:22:41;;;;;;;20.55;12.68;;;4.30;99.90;;;;;;5044926;28;20037;-66
2023/04/07 04:25:08;;;;;;;19.58;14.05;;;4.30;99.90;;;;;;5047866;28;20071;-66
2023/04/07 04:27:36;;;;;;;18.60;12.25;;;4.20;99.90;;;;;;5049380;28;20060;-66
2023/04/07 04:30:16;;;;;;;19.00;12.98;;;4.20;99.90;;;;;;5047593;28;20037;-66
2023/04/07 04:32:54;;;;;;;17.98;12.95;;;4.20;99.90;;;;;;5015088;28;20068;-66
2023/04/07 04:35:29;;;;;;;20.13;12.55;;;4.20;99.90;;;;;;5049813;28;20488;-65
2023/04/07 04:38:05;;;;;;;15.40;12.02;;;4.20;99.90;;;;;;5045480;28;20537;-66
2023/04/07 04:40:33;;;;;;;16.95;11.73;;;4.20;99.90;;;;;;5042191;28;20558;-65
2023/04/07 04:43:00;;;;;;;16.20;11.93;;;4.20;99.90;;;;;;5030823;28;20045;-65
2023/04/07 04:45:29;;;;;;;18.40;12.38;;;4.20;99.90;;;;;;5048906;28;20506;-65
2023/04/07 04:47:57;;;;;;;20.35;12.20;;;4.30;99.90;;;;;;5047866;28;20037;-66
2023/04/07 04:50:24;;;;;;;17.90;11.90;;;4.40;99.90;;;;;;5031004;28;20037;-65
2023/04/07 04:52:52;;;;;;;17.42;12.02;;;4.50;99.90;;;;;;5027446;28;20479;-66
2023/04/07 04:55:22;;;;;;;18.15;12.93;;;4.60;99.90;;;;;;5047547;28;20041;-65
2023/04/07 04:57:52;;;;;;;19.02;13.25;;;4.70;99.90;;;;;;5013155;28;20041;-65
2023/04/07 05:00:28;;;;;;;21.98;12.98;;;4.80;99.90;;;;;;5045954;28;20525;-66
2023/04/07 05:03:00;;;;;;;;;;;4.90;99.90;;;;;;5043869;28;20121;-67
2023/04/07 05:05:27;;;;;;;;;;;5.00;99.90;;;;;;5048431;28;19924;-67
2023/04/07 05:07:55;;;;;;;;;;;5.00;99.90;;;;;;5049162;28;19931;-66
2023/04/07 05:10:25;;;;;;;;;;;5.20;99.90;;;;;;5048060;28;20371;-67
2023/04/07 05:12:53;;;;;;;;;;;5.30;99.90;;;;;;5047733;28;19920;-66
2023/04/07 05:15:20;;;;;;;;;;;5.40;99.90;;;;;;5046236;28;19921;-66
2023/04/07 05:17:49;;;;;;;;;;;5.50;99.90;;;;;;5048122;28;20408;-66
2023/04/07 05:20:22;;;;;;;;;;;5.60;99.90;;;;;;5053719;28;20064;-67
2023/04/07 05:22:49;;;;;;;;;;;5.60;99.90;;;;;;5044413;28;20375;-67
2023/04/07 05:25:19;;;;;;;;;;;5.70;99.90;;;;;;5028264;28;19959;-67
2023/04/07 05:27:49;;;;;;;;;;;5.70;99.90;;;;;;5048226;28;20359;-66
2023/04/07 05:30:17;;;;;;;;;;;5.90;99.90;;;;;;5047051;28;19921;-67
2023/04/07 05:32:44;;;;;;;;;;;6.00;99.90;;;;;;5048651;28;19955;-66
2023/04/07 05:35:22;;;;;;;;;;;6.00;99.90;;;;;;5044988;28;20045;-66
2023/04/07 05:37:54;;;;;;;;;;;6.10;99.90;;;;;;5037725;28;19953;-66
2023/04/07 05:40:21;;;;;;;;;;;6.10;99.90;;;;;;5046099;28;19921;-66
2023/04/07 05:42:49;;;;;;;;;;;6.20;99.90;;;;;;5027357;28;20368;-67
2023/04/07 05:45:17;;;;;;;;;;;6.40;99.90;;;;;;5045151;28;20003;-67
2023/04/07 05:47:49;;;;;;;;;;;6.40;99.90;;;;;;5069581;28;19920;-64
2023/04/07 05:50:22;;;;;;;;;;;6.50;99.90;;;;;;5060908;28;20451;-66
2023/04/07 05:52:50;;;;;;;;;;;6.60;99.90;;;;;;5045294;28;20290;-64
2023/04/07 05:55:23;;;;;;;;;;;6.70;99.90;;;;;;5036620;28;20055;-66
2023/04/07 05:57:51;;;;;;;;;;;6.80;99.90;;;;;;5043506;28;19920;-66
2023/04/07 06:00:21;;;;;;;;;;;6.80;99.90;;;;;;5042641;28;20414;-67
2023/04/07 06:02:58;;;;;;;;;;;6.80;99.90;;;;;;5040307;28;19921;-67
2023/04/07 06:05:26;;;;;;;;;;;6.90;99.90;;;;;;5041029;28;20378;-67
2023/04/07 06:07:55;;;;;;;;;;;7.00;99.90;;;;;;5070023;28;20027;-67
2023/04/07 06:10:25;;;;;;;;;;;7.10;99.90;;;;;;5025857;28;20452;-68
2023/04/07 06:12:52;;;;;;;;;;;7.20;99.90;;;;;;5045394;28;19925;-67
2023/04/07 06:15:20;;;;;;;;;;;7.30;99.90;;;;;;5045346;28;20018;-67
2023/04/07 06:17:47;;;;;;;;;;;7.40;99.90;;;;;;5045809;28;19921;-68
2023/04/07 06:20:14;;;;;;;;;;;7.50;99.90;;;;;;5064251;28;20032;-67
2023/04/07 06:22:42;;;;;;;;;;;7.50;99.90;;;;;;5049230;28;19935;-68
2023/04/07 06:25:09;;;;;;;;;;;7.60;99.90;;;;;;5042612;28;19928;-68
2023/04/07 06:27:37;;;;;;;;;;;7.70;99.90;;;;;;5049703;28;20007;-67
2023/04/07 06:30:05;;;;;;;;;;;7.60;99.90;;;;;;5028123;28;20434;-67
2023/04/07 06:32:32;;;;;;;;;;;7.70;99.90;;;;;;5048917;28;20347;-65
2023/04/07 06:34:59;;;;;;;;;;;7.60;99.90;;;;;;5042919;28;20401;-67
2023/04/07 06:37:27;;;;;;;;;;;7.80;99.90;;;;;;5052297;28;19924;-67
2023/04/07 06:39:54;;;;;;;;;;;8.00;99.90;;;;;;5049772;28;19921;-67
2023/04/07 06:42:21;;;;;;;;;;;8.00;99.90;;;;;;5045870;28;19974;-66
2023/04/07 06:44:57;;;;;;;;;;;8.10;99.90;;;;;;5034944;28;20437;-67
2023/04/07 06:47:24;;;;;;;;;;;8.20;99.90;;;;;;5045203;28;19920;-67
2023/04/07 06:49:51;;;;;;;;;;;8.20;99.90;;;;;;5052952;28;19996;-65
2023/04/07 06:52:19;;;;;;;;;;;8.20;99.90;;;;;;5051568;28;20565;-67
2023/04/07 06:54:46;;;;;;;;;;;8.50;99.90;;;;;;5048287;28;20348;-66
2023/04/07 06:57:13;;;;;;;;;;;8.50;99.90;;;;;;5051345;28;19924;-66
2023/04/07 06:59:40;;;;;;;;;;;8.50;99.90;;;;;;5052420;28;19921;-68
2023/04/07 07:02:07;;;;;;;;;;;8.60;99.90;;;;;;5047866;28;19935;-67
2023/04/07 07:04:35;;;;;;;;;;;8.80;99.90;;;;;;5051736;28;19922;-67
2023/04/07 07:07:02;;;;;;;;;;;8.90;99.90;;;;;;5052833;28;19956;-66
2023/04/07 07:09:29;;;;;;;;;;;9.00;99.90;;;;;;5051252;28;20458;-66
2023/04/07 07:11:56;;;;;;;;;;;9.10;99.90;;;;;;5051565;28;19921;-67
2023/04/07 07:14:24;;;;;;;;;;;8.90;99.90;;;;;;5048442;28;20261;-66
2023/04/07 07:16:51;;;;;;;;;;;9.00;99.90;;;;;;5044812;28;19921;-66
2023/04/07 07:19:18;;;;;;;;;;;9.10;99.90;;;;;;5043878;28;19928;-66
2023/04/07 07:21:45;;;;;;;;;;;9.30;99.90;;;;;;5046845;28;19996;-66
2023/04/07 07:24:12;;;;;;;;;;;8.70;99.90;;;;;;5047177;28;19927;-66
2023/04/07 07:26:40;;;;;;;;;;;8.80;99.90;;;;;;5048918;28;20358;-67
2023/04/07 07:29:10;;;;;;;;;;;8.80;99.90;;;;;;5047425;28;19925;-66
2023/04/07 07:31:37;;;;;;;;;;;9.20;99.90;;;;;;5047709;28;19920;-68
2023/04/07 07:34:05;;;;;;;;;;;9.20;99.90;;;;;;5049180;28;19975;-68
2023/04/07 07:36:46;;;;;;;;;;;9.30;99.90;;;;;;5064352;28;19920;-67
2023/04/07 07:39:41;;;;;;;;;;;9.60;99.90;;;;;;5033421;28;20406;-67
2023/04/07 07:42:08;;;;;;;;;;;9.80;99.90;;;;;;5049089;28;19920;-66
2023/04/07 07:44:35;;;;;;;;;;;9.40;99.90;;;;;;5047995;28;20397;-67
2023/04/07 07:47:02;;;;;;;;;;;9.10;99.90;;;;;;5045523;28;20406;-68
2023/04/07 07:49:30;;;;;;;;;;;9.40;99.90;;;;;;5048573;28;19928;-67
2023/04/07 07:51:59;;;;;;;;;;;9.60;99.90;;;;;;5047323;28;20367;-68
2023/04/07 07:54:26;;;;;;;;;;;9.90;99.90;;;;;;5048700;28;19927;-66
2023/04/07 07:56:54;;;;;;;;;;;10.30;99.90;;;;;;5044633;28;19962;-67
2023/04/07 07:59:21;;;;;;;;;;;10.70;99.90;;;;;;5050418;28;19929;-66
2023/04/07 08:01:48;;;;;;;;;;;11.00;99.90;;;;;;5033879;28;19931;-64
2023/04/07 08:04:15;;;;;;;;;;;11.40;99.90;;;;;;5051234;28;20398;-67
2023/04/07 08:06:43;;;;;;;;;;;11.80;99.90;;;;;;5049830;28;19924;-65
2023/04/07 08:09:10;;;;;;;;;;;12.00;99.90;;;;;;5049364;28;19941;-67
2023/04/07 08:11:37;;;;;;;;;;;12.20;99.90;;;;;;5047477;28;19929;-66
2023/04/07 08:14:04;;;;;;;;;;;12.40;99.90;;;;;;5041838;28;19920;-67
2023/04/07 08:16:34;;;;;;;;;;;12.60;99.90;;;;;;5050190;28;20383;-66
2023/04/07 08:19:02;;;;;;;;;;;12.70;99.90;;;;;;5048166;28;20367;-67
2023/04/07 08:21:30;;;;;;;;;;;12.60;99.90;;;;;;5048368;28;19944;-66
2023/04/07 08:23:57;;;;;;;;;;;12.80;99.90;;;;;;5049191;28;20469;-66
2023/04/07 08:26:24;;;;;;;;;;;13.10;99.90;;;;;;5043443;28;19921;-66
2023/04/07 08:28:52;;;;;;;;;;;13.20;99.90;;;;;;5043031;28;20013;-67
2023/04/07 08:31:19;;;;;;;;;;;13.20;99.90;;;;;;5050440;28;19931;-66
2023/04/07 08:33:46;;;;;;;;;;;13.30;99.90;;;;;;5047048;28;19921;-68
2023/04/07 08:36:14;;;;;;;;;;;13.30;99.90;;;;;;5054556;28;19924;-67
2023/04/07 08:38:41;;;;;;;;;;;13.40;99.90;;;;;;5065577;28;20353;-65
2023/04/07 08:41:12;;;;;;;;;;;13.30;99.90;;;;;;5050467;28;19925;-67
2023/04/07 08:43:42;;;;;;;;;;;13.40;99.90;;;;;;5046333;28;20433;-65
2023/04/07 08:46:10;;;;;;;;;;;13.10;99.90;;;;;;5032017;28;20039;-65
2023/04/07 08:48:37;;;;;;;;;;;13.10;99.90;;;;;;5050457;28;19960;-64
2023/04/07 08:51:07;;;;;;;;;;;13.40;99.90;;;;;;5049082;28;19921;-65
2023/04/07 08:53:42;;;;;;;;;;;13.40;99.90;;;;;;5050554;28;20236;-68
2023/04/07 08:56:13;;;;;;;;;;;13.40;99.90;;;;;;5012975;28;20002;-68
2023/04/07 08:58:41;;;;;;;;;;;13.60;99.90;;;;;;5046670;28;19928;-68
2023/04/07 09:01:08;;;;;;;;;;;13.70;99.90;;;;;;5042445;28;20390;-68
2023/04/07 09:03:36;;;;;;;;;;;14.00;99.90;;;;;;5048616;28;20307;-68
2023/04/07 09:06:03;;;;;;;;;;;14.40;99.90;;;;;;5047072;28;20007;-68
2023/04/07 09:08:30;;;;;;;;;;;14.30;99.90;;;;;;5048479;28;19939;-67
2023/04/07 09:10:57;;;;;;;;;;;13.60;99.90;;;;;;5049900;28;20012;-67
2023/04/07 09:13:25;;;;;;;;;;;13.30;99.90;;;;;;5043815;28;19927;-67
2023/04/07 09:15:52;;;;;;;;;;;13.30;99.90;;;;;;5048948;28;20389;-67
2023/04/07 09:18:19;;;;;;;;;;;13.70;99.90;;;;;;5050619;28;19943;-66
2023/04/07 09:21:00;;;;;;;;;;;13.60;99.90;;;;;;5047554;28;20402;-68
2023/04/07 09:23:32;;;;;;;;;;;13.80;99.90;;;;;;5043402;28;20312;-66
2023/04/07 09:26:00;;;;;;;;;;;14.00;99.90;;;;;;5044404;28;19939;-67
2023/04/07 09:28:41;;;;;;;;;;;14.30;99.60;;;;;;5045416;28;20387;-67
2023/04/07 09:31:08;;;;;;;;;;;13.90;99.80;;;;;;5046757;28;19944;-68
2023/04/07 09:33:35;;;;;;;;;;;14.00;99.90;;;;;;5045316;28;19974;-68
2023/04/07 09:36:04;;;;;;;;;;;14.00;99.50;;;;;;5045629;28;20344;-66
2023/04/07 09:38:35;;;;;;;;;;;14.00;99.90;;;;;;5046554;28;19982;-66
2023/04/07 09:41:06;;;;;;;;;;;14.20;99.40;;;;;;5046586;28;19924;-68
2023/04/07 09:43:38;;;;;;;;;;;14.00;99.10;;;;;;5046101;28;19928;-67
2023/04/07 09:46:15;;;;;;;;;;;14.10;99.20;;;;;;5045074;28;19952;-67
2023/04/07 09:48:44;;;;;;;;;;;13.90;99.00;;;;;;5022908;28;20582;-66
2023/04/07 09:51:12;;;;;;;;;;;14.30;99.10;;;;;;5059203;28;20547;-67
2023/04/07 09:53:44;;;;;;;;;;;14.70;98.80;;;;;;5044444;28;19931;-67
2023/04/07 09:56:11;;;;;;;;;;;15.10;98.40;;;;;;5059754;28;19921;-66
2023/04/07 09:58:42;;;;;;;;;;;14.60;98.00;;;;;;5047804;28;19979;-66
2023/04/07 10:01:10;;;;;;;;;;;14.40;98.10;;;;;;5030005;28;19921;-66
2023/04/07 10:03:37;;;;;;;;;;;14.20;98.50;;;;;;5044457;28;20336;-70
2023/04/07 10:06:05;;;;;;;;;;;14.20;99.00;;;;;;5042919;28;20502;-67
2023/04/07 10:08:36;;;;;;;;;;;14.50;97.90;;;;;;5042489;28;20019;-67
2023/04/07 10:11:04;;;;;;;;;;;14.60;97.70;;;;;;5039652;28;20442;-68
2023/04/07 10:13:32;;;;;;;;;;;14.80;97.50;;;;;;5022788;28;19932;-68
2023/04/07 10:16:02;;;;;;;;;;;15.30;97.10;;;;;;5046962;28;19963;-68
2023/04/07 10:18:32;;;;;;;;;;;15.50;96.70;;;;;;5045400;28;19978;-67
2023/04/07 10:21:01;;;;;;;;;;;15.30;96.80;;;;;;5045080;28;19959;-68
2023/04/07 10:23:38;;;;;;;;;;;14.80;96.50;;;;;;5044909;28;19921;-68
2023/04/07 10:26:07;;;;;;;;;;;14.80;97.30;;;;;;5045006;28;20526;-66
2023/04/07 10:28:37;;;;;;;;;;;15.10;96.60;;;;;;5045425;28;19921;-66
2023/04/07 10:31:04;;;;;;;;;;;15.30;96.20;;;;;;5043388;28;19929;-66
2023/04/07 10:33:51;;;;;;;;;;;15.60;95.70;;;;;;5045046;28;19979;-66
2023/04/07 10:36:19;;;;;;;;;;;15.70;95.00;;;;;;5037229;28;20036;-67
2023/04/07 10:39:05;;;;;;;;;;;15.80;94.90;;;;;;5027818;28;20443;-67
2023/04/07 10:41:33;;;;;;;;;;;16.00;94.60;;;;;;5045186;28;19927;-67
2023/04/07 10:44:04;;;;;;;;;;;16.00;94.40;;;;;;5043877;28;19955;-67
2023/04/07 10:46:43;;;;;;;;;;;16.10;93.90;;;;;;5044750;28;20040;-67
2023/04/07 10:49:12;;;;;;;;;;;16.10;94.00;;;;;;5045463;28;19942;-67
2023/04/07 10:51:40;;;;;;;;;;;16.40;92.50;;;;;;5048236;28;19932;-67
2023/04/07 10:54:14;;;;;;;;;;;16.90;92.20;;;;;;5047255;28;19925;-67
2023/04/07 10:57:00;;;;;;;;;;;17.30;91.20;;;;;;5048437;28;19932;-68
2023/04/07 10:59:31;;;;;;;;;;;17.40;90.60;;;;;;5044219;28;20387;-68
2023/04/07 11:02:14;;;;;;;;;;;17.90;90.00;;;;;;5053004;28;20388;-66
2023/04/07 11:04:42;;;;;;;;;;;18.30;87.90;;;;;;5050988;28;19921;-68
2023/04/07 11:07:10;;;;;;;;;;;18.60;86.80;;;;;;5052998;28;19921;-67
2023/04/07 11:09:37;;;;;;;;;;;18.80;83.50;;;;;;5050881;28;20035;-68
2023/04/07 11:12:05;;;;;;;;;;;18.80;83.50;;;;;;5031320;28;20367;-67
2023/04/07 11:14:33;;;;;;;;;;;18.40;83.10;;;;;;5050168;28;20424;-68
2023/04/07 11:17:02;;;;;;;;;;;18.70;82.20;;;;;;5033248;28;20406;-68
2023/04/07 11:19:31;;;;;;;;;;;18.80;81.80;;;;;;5052162;28;19924;-67
2023/04/07 11:22:13;;;;;;;;;;;19.10;80.90;;;;;;5051534;28;19924;-68
2023/04/07 11:24:55;;;;;;;;;;;19.50;79.50;;;;;;5049058;28;19964;-68
2023/04/07 11:27:23;;;;;;;;;;;19.60;77.60;;;;;;5050940;28;20386;-68
2023/04/07 11:29:50;;;;;;;;;;;19.40;77.30;;;;;;5052368;28;19925;-68
2023/04/07 11:32:21;;;;;;;;;;;19.80;76.50;;;;;;5052283;28;20422;-68
2023/04/07 11:34:51;;;;;;;;;;;19.70;76.30;;;;;;5050197;28;19927;-68
2023/04/07 11:37:19;;;;;;;;;;;19.30;75.50;;;;;;5051649;28;19948;-68
2023/04/07 11:39:53;;;;;;;;;;;19.20;76.40;;;;;;5051311;28;20287;-67
2023/04/07 11:42:33;;;;;;;;;;;19.80;76.00;;;;;;5043432;28;20395;-68
2023/04/07 11:45:00;;;;;;;;;;;19.10;75.30;;;;;;5050628;28;20027;-67
2023/04/07 11:47:38;;;;;;;;;;;19.20;76.40;;;;;;5050785;28;19967;-67
2023/04/07 11:50:06;;;;;;;;;;;19.60;75.70;;;;;;5051718;28;20448;-67
2023/04/07 11:52:43;;;;;;;;;;;20.10;75.00;;;;;;5050640;28;19924;-69
2023/04/07 11:55:23;;;;;;;;;;;20.70;73.80;;;;;;5050244;28;19994;-67
2023/04/07 11:57:50;;;;;;;;;;;21.20;72.70;;;;;;5050394;28;19924;-69
2023/04/07 12:00:18;;;;;;;;;;;20.70;71.60;;;;;;5051816;28;19927;-68
2023/04/07 12:02:45;;;;;;;;;;;20.70;71.20;;;;;;5050145;28;20007;-68
2023/04/07 12:05:13;;;;;;;;;;;21.40;71.70;;;;;;5051232;28;20399;-68
2023/04/07 12:07:51;;;;;;;;;;;22.20;68.50;;;;;;5048473;28;19924;-68
2023/04/07 12:10:22;;;;;;;;;;;21.50;68.60;;;;;;5043863;28;19928;-68
2023/04/07 12:12:50;;;;;;;;;;;21.20;69.10;;;;;;5048978;28;19924;-68
2023/04/07 12:15:17;;;;;;;;;;;21.00;68.90;;;;;;5043802;28;19936;-68
2023/04/07 12:17:46;;;;;;;;;;;21.30;68.60;;;;;;5050819;28;19928;-66
2023/04/07 12:20:14;;;;;;;;;;;20.70;69.50;;;;;;5049728;28;20024;-68
2023/04/07 12:22:41;;;;;;;;;;;20.80;69.70;;;;;;5049242;28;20023;-67
2023/04/07 12:25:08;;;;;;;;;;;20.90;69.60;;;;;;5050367;28;19921;-67
2023/04/07 12:27:35;;;;;;;;;;;20.00;70.20;;;;;;5050196;28;20042;-68
2023/04/07 12:30:10;;;;;;;;;;;19.40;71.90;;;;;;5050435;28;20017;-69
2023/04/07 12:32:37;;;;;;;;;;;19.40;72.20;;;;;;5049433;28;19927;-67
2023/04/07 12:35:05;;;;;;;;;;;19.40;73.00;;;;;;5047646;28;19947;-68
2023/04/07 12:37:32;;;;;;;;;;;19.60;71.50;;;;;;5049173;28;19920;-68
2023/04/07 12:39:59;;;;;;;;;;;20.10;70.40;;;;;;5049482;28;19920;-67
2023/04/07 12:42:26;;;;;;;;;;;20.00;70.10;;;;;;5049690;28;19944;-68
2023/04/07 12:44:54;;;;;;;;;;;20.50;70.90;;;;;;5049562;28;19931;-66
2023/04/07 12:47:21;;;;;;;;;;;21.10;69.40;;;;;;5051308;28;20383;-68
2023/04/07 12:49:48;;;;;;;;;;;21.50;68.20;;;;;;5050346;28;20467;-68
2023/04/07 12:52:16;;;;;;;;;;;21.60;68.60;;;;;;5049015;28;19924;-68
2023/04/07 12:54:44;;;;;;;;;;;21.30;68.00;;;;;;5049976;28;19920;-67
2023/04/07 12:57:11;;;;;;;;;;;21.70;67.10;;;;;;5048611;28;19925;-68
2023/04/07 12:59:38;;;;;;;;;;;21.10;68.00;;;;;;5049518;28;19920;-68
2023/04/07 13:02:06;;;;;;;;;;;20.70;68.30;;;;;;5049399;28;19967;-67
2023/04/07 13:04:34;;;;;;;;;;;21.80;67.80;;;;;;5051246;28;20302;-68
2023/04/07 13:07:02;;;;;;;;;;;22.30;66.90;;;;;;5047558;28;19929;-67
2023/04/07 13:09:29;;;;;;;;;;;22.60;65.70;;;;;;5049450;28;19956;-68
2023/04/07 13:11:56;;;;;;;;;;;21.80;65.50;;;;;;5047208;28;20549;-67
2023/04/07 13:14:24;;;;;;;;;;;20.50;67.40;;;;;;5049405;28;20322;-68
2023/04/07 13:16:51;;;;;;;;;;;20.50;68.80;;;;;;5049964;28;20307;-68
2023/04/07 13:19:18;;;;;;;;;;;19.70;68.80;;;;;;5049045;28;20354;-66
2023/04/07 13:21:45;;;;;;;;;;;21.20;68.20;;;;;;5049336;28;20024;-67
2023/04/07 13:24:14;;;;;;;;;;;21.90;67.90;;;;;;5049389;28;19927;-67
2023/04/07 13:26:41;;;;;;;;;;;20.70;69.50;;;;;;5056718;28;19920;-68
2023/04/07 13:29:09;;;;;;;;;;;20.00;71.30;;;;;;5050791;28;20007;-68
2023/04/07 13:31:36;;;;;;;;;;;19.20;73.10;;;;;;5048100;28;20375;-69
2023/04/07 13:34:03;;;;;;;;;;;18.00;75.50;;;;;;5048558;28;19927;-69
2023/04/07 13:36:30;;;;;;;;;;;17.70;76.90;;;;;;5048847;28;20343;-69
2023/04/07 13:38:58;;;;;;;;;;;17.60;77.80;;;;;;5049262;28;19925;-69
2023/04/07 13:41:25;;;;;;;;;;;19.40;76.50;;;;;;5048537;28;19921;-67
2023/04/07 13:43:52;;;;;;;;;;;21.50;72.50;;;;;;5047987;28;20305;-68
2023/04/07 13:46:19;;;;;;;;;;;22.70;70.20;;;;;;5049825;28;19924;-67
2023/04/07 13:48:56;;;;;;;;;;;23.30;69.20;;;;;;5046664;28;19935;-68
2023/04/07 13:51:23;;;;;;;;;;;23.70;68.20;;;;;;5050105;28;19920;-68
2023/04/07 13:53:50;;;;;;;;;;;22.80;67.90;;;;;;5048353;28;19952;-66
2023/04/07 13:56:17;;;;;;;;;;;23.00;68.50;;;;;;5049849;28;20366;-68